sensor_id;sensor_type;location;lat;lon;timestamp;P1;durP1;ratioP1;P2;durP2;ratioP2
11197;SDS011;5655;48.744;9.162;2022-09-01T00:01:10;34.38;;;27.33;;
11197;SDS011;5655;48.744;9.162;2022-09-01T00:03:39;32.40;;;26.17;;
11197;SDS011;5655;48.744;9.162;2022-09-01T00:06:04;33.25;;;26.25;;
11197;SDS011;5655;48.744;9.162;2022-09-01T00:08:34;32.45;;;26.70;;
11197;SDS011;5655;48.744;9.162;2022-09-01T00:10:59;37.25;;;28.27;;
11197;SDS011;5655;48.744;9.162;2022-09-01T00:13:25;36.00;;;28.38;;
11197;SDS011;5655;48.744;9.162;2022-09-01T00:15:50;34.78;;;28.15;;
11197;SDS011;5655;48.744;9.162;2022-09-01T00:18:15;31.80;;;26.85;;
11197;SDS011;5655;48.744;9.162;2022-09-01T00:20:40;36.35;;;28.63;;
11197;SDS011;5655;48.744;9.162;2022-09-01T00:23:06;36.72;;;28.88;;
11197;SDS011;5655;48.744;9.162;2022-09-01T00:25:31;35.42;;;29.63;;
11197;SDS011;5655;48.744;9.162;2022-09-01T00:27:57;36.22;;;29.30;;
11197;SDS011;5655;48.744;9.162;2022-09-01T00:30:24;33.83;;;27.38;;
11197;SDS011;5655;48.744;9.162;2022-09-01T00:32:50;33.40;;;27.23;;
11197;SDS011;5655;48.744;9.162;2022-09-01T00:35:16;34.80;;;27.15;;
11197;SDS011;5655;48.744;9.162;2022-09-01T00:37:43;32.20;;;26.48;;
11197;SDS011;5655;48.744;9.162;2022-09-01T00:40:09;31.73;;;24.70;;
11197;SDS011;5655;48.744;9.162;2022-09-01T00:42:37;35.63;;;25.55;;
11197;SDS011;5655;48.744;9.162;2022-09-01T00:45:04;27.88;;;24.08;;
11197;SDS011;5655;48.744;9.162;2022-09-01T00:47:30;31.65;;;25.58;;
11197;SDS011;5655;48.744;9.162;2022-09-01T00:49:56;27.52;;;23.77;;
11197;SDS011;5655;48.744;9.162;2022-09-01T00:52:28;28.73;;;24.52;;
11197;SDS011;5655;48.744;9.162;2022-09-01T00:54:58;30.15;;;24.05;;
11197;SDS011;5655;48.744;9.162;2022-09-01T00:57:28;30.85;;;23.77;;
11197;SDS011;5655;48.744;9.162;2022-09-01T00:59:56;29.13;;;23.67;;
11197;SDS011;5655;48.744;9.162;2022-09-01T01:02:24;29.33;;;23.25;;
11197;SDS011;5655;48.744;9.162;2022-09-01T01:04:50;26.98;;;22.55;;
11197;SDS011;5655;48.744;9.162;2022-09-01T01:07:16;27.48;;;21.92;;
11197;SDS011;5655;48.744;9.162;2022-09-01T01:09:46;27.60;;;22.35;;
11197;SDS011;5655;48.744;9.162;2022-09-01T01:12:13;24.23;;;20.52;;
11197;SDS011;5655;48.744;9.162;2022-09-01T01:14:43;25.65;;;21.58;;
11197;SDS011;5655;48.744;9.162;2022-09-01T01:17:10;26.38;;;21.08;;
11197;SDS011;5655;48.744;9.162;2022-09-01T01:19:40;25.35;;;21.85;;
11197;SDS011;5655;48.744;9.162;2022-09-01T01:25:26;23.30;;;20.35;;
11197;SDS011;5655;48.744;9.162;2022-09-01T01:28:03;27.00;;;21.42;;
11197;SDS011;5655;48.744;9.162;2022-09-01T01:30:30;27.92;;;22.17;;
11197;SDS011;5655;48.744;9.162;2022-09-01T01:33:00;29.67;;;22.63;;
11197;SDS011;5655;48.744;9.162;2022-09-01T01:35:26;30.77;;;23.65;;
11197;SDS011;5655;48.744;9.162;2022-09-01T01:37:52;31.55;;;22.88;;
11197;SDS011;5655;48.744;9.162;2022-09-01T01:40:19;28.17;;;22.88;;
11197;SDS011;5655;48.744;9.162;2022-09-01T01:42:47;27.20;;;21.95;;
11197;SDS011;5655;48.744;9.162;2022-09-01T01:45:16;30.27;;;24.10;;
11197;SDS011;5655;48.744;9.162;2022-09-01T01:47:44;30.02;;;23.38;;
11197;SDS011;5655;48.744;9.162;2022-09-01T01:50:25;29.42;;;23.00;;
11197;SDS011;5655;48.744;9.162;2022-09-01T01:52:54;29.33;;;23.50;;
11197;SDS011;5655;48.744;9.162;2022-09-01T01:55:21;31.98;;;23.70;;
11197;SDS011;5655;48.744;9.162;2022-09-01T01:57:48;30.35;;;22.98;;
11197;SDS011;5655;48.744;9.162;2022-09-01T02:00:21;28.85;;;23.42;;
11197;SDS011;5655;48.744;9.162;2022-09-01T02:02:51;28.33;;;23.23;;
11197;SDS011;5655;48.744;9.162;2022-09-01T02:05:21;29.10;;;24.20;;
11197;SDS011;5655;48.744;9.162;2022-09-01T02:07:56;30.92;;;24.30;;
11197;SDS011;5655;48.744;9.162;2022-09-01T02:10:28;31.10;;;24.02;;
11197;SDS011;5655;48.744;9.162;2022-09-01T02:12:57;32.10;;;23.75;;
11197;SDS011;5655;48.744;9.162;2022-09-01T02:15:27;32.20;;;25.23;;
11197;SDS011;5655;48.744;9.162;2022-09-01T02:17:53;33.88;;;24.63;;
11197;SDS011;5655;48.744;9.162;2022-09-01T02:20:21;32.25;;;26.25;;
11197;SDS011;5655;48.744;9.162;2022-09-01T02:22:48;34.35;;;29.77;;
11197;SDS011;5655;48.744;9.162;2022-09-01T02:25:16;29.63;;;24.65;;
11197;SDS011;5655;48.744;9.162;2022-09-01T02:27:42;34.72;;;26.10;;
11197;SDS011;5655;48.744;9.162;2022-09-01T02:30:08;33.50;;;26.35;;
11197;SDS011;5655;48.744;9.162;2022-09-01T02:32:34;33.15;;;26.23;;
11197;SDS011;5655;48.744;9.162;2022-09-01T02:34:59;33.90;;;26.25;;
11197;SDS011;5655;48.744;9.162;2022-09-01T02:37:25;33.53;;;26.98;;
11197;SDS011;5655;48.744;9.162;2022-09-01T02:39:51;36.92;;;26.92;;
11197;SDS011;5655;48.744;9.162;2022-09-01T02:42:21;35.03;;;27.45;;
11197;SDS011;5655;48.744;9.162;2022-09-01T02:44:50;37.85;;;27.20;;
11197;SDS011;5655;48.744;9.162;2022-09-01T02:47:16;36.25;;;27.83;;
11197;SDS011;5655;48.744;9.162;2022-09-01T02:49:42;36.42;;;27.73;;
11197;SDS011;5655;48.744;9.162;2022-09-01T02:52:07;38.38;;;26.85;;
11197;SDS011;5655;48.744;9.162;2022-09-01T02:54:32;38.08;;;28.42;;
11197;SDS011;5655;48.744;9.162;2022-09-01T02:56:58;34.50;;;27.52;;
11197;SDS011;5655;48.744;9.162;2022-09-01T02:59:24;37.42;;;28.40;;
11197;SDS011;5655;48.744;9.162;2022-09-01T03:01:51;35.03;;;27.25;;
11197;SDS011;5655;48.744;9.162;2022-09-01T03:04:18;34.13;;;26.42;;
11197;SDS011;5655;48.744;9.162;2022-09-01T03:06:46;38.00;;;29.40;;
11197;SDS011;5655;48.744;9.162;2022-09-01T03:09:13;34.03;;;27.48;;
11197;SDS011;5655;48.744;9.162;2022-09-01T03:11:42;36.83;;;28.25;;
11197;SDS011;5655;48.744;9.162;2022-09-01T03:14:10;34.42;;;27.95;;
11197;SDS011;5655;48.744;9.162;2022-09-01T03:16:36;36.58;;;27.80;;
11197;SDS011;5655;48.744;9.162;2022-09-01T03:19:03;36.83;;;29.52;;
11197;SDS011;5655;48.744;9.162;2022-09-01T03:21:32;34.38;;;26.67;;
11197;SDS011;5655;48.744;9.162;2022-09-01T03:23:58;29.35;;;24.45;;
11197;SDS011;5655;48.744;9.162;2022-09-01T03:26:26;31.40;;;25.27;;
11197;SDS011;5655;48.744;9.162;2022-09-01T03:28:51;36.90;;;26.73;;
11197;SDS011;5655;48.744;9.162;2022-09-01T03:31:17;31.25;;;24.27;;
11197;SDS011;5655;48.744;9.162;2022-09-01T03:33:43;33.90;;;24.20;;
11197;SDS011;5655;48.744;9.162;2022-09-01T03:36:09;26.40;;;22.15;;
11197;SDS011;5655;48.744;9.162;2022-09-01T03:38:43;28.40;;;22.92;;
11197;SDS011;5655;48.744;9.162;2022-09-01T03:41:10;25.65;;;20.98;;
11197;SDS011;5655;48.744;9.162;2022-09-01T03:43:36;25.95;;;20.90;;
11197;SDS011;5655;48.744;9.162;2022-09-01T03:46:02;24.05;;;20.42;;
11197;SDS011;5655;48.744;9.162;2022-09-01T03:48:28;27.90;;;22.58;;
11197;SDS011;5655;48.744;9.162;2022-09-01T03:50:54;25.67;;;20.27;;
11197;SDS011;5655;48.744;9.162;2022-09-01T03:53:26;29.67;;;23.15;;
11197;SDS011;5655;48.744;9.162;2022-09-01T03:55:53;28.00;;;22.50;;
11197;SDS011;5655;48.744;9.162;2022-09-01T03:58:19;27.35;;;22.88;;
11197;SDS011;5655;48.744;9.162;2022-09-01T04:00:55;29.38;;;23.50;;
11197;SDS011;5655;48.744;9.162;2022-09-01T04:03:26;29.42;;;23.88;;
11197;SDS011;5655;48.744;9.162;2022-09-01T04:05:55;28.50;;;23.15;;
11197;SDS011;5655;48.744;9.162;2022-09-01T04:08:21;29.02;;;22.92;;
11197;SDS011;5655;48.744;9.162;2022-09-01T04:10:51;31.85;;;24.73;;
11197;SDS011;5655;48.744;9.162;2022-09-01T04:13:18;31.02;;;25.70;;
11197;SDS011;5655;48.744;9.162;2022-09-01T04:15:47;30.15;;;24.23;;
11197;SDS011;5655;48.744;9.162;2022-09-01T04:18:13;34.38;;;25.48;;
11197;SDS011;5655;48.744;9.162;2022-09-01T04:20:56;34.63;;;25.65;;
11197;SDS011;5655;48.744;9.162;2022-09-01T04:26:00;31.20;;;25.27;;
11197;SDS011;5655;48.744;9.162;2022-09-01T04:28:35;35.88;;;25.88;;
11197;SDS011;5655;48.744;9.162;2022-09-01T04:31:06;33.88;;;26.17;;
11197;SDS011;5655;48.744;9.162;2022-09-01T04:33:38;33.40;;;26.75;;
11197;SDS011;5655;48.744;9.162;2022-09-01T04:36:05;36.75;;;26.27;;
11197;SDS011;5655;48.744;9.162;2022-09-01T04:38:38;32.80;;;26.38;;
11197;SDS011;5655;48.744;9.162;2022-09-01T04:41:06;32.33;;;24.70;;
11197;SDS011;5655;48.744;9.162;2022-09-01T04:43:33;34.03;;;25.13;;
11197;SDS011;5655;48.744;9.162;2022-09-01T04:45:59;31.30;;;24.35;;
11197;SDS011;5655;48.744;9.162;2022-09-01T04:48:24;32.15;;;24.52;;
11197;SDS011;5655;48.744;9.162;2022-09-01T04:50:50;32.00;;;24.50;;
11197;SDS011;5655;48.744;9.162;2022-09-01T04:53:16;31.70;;;25.70;;
11197;SDS011;5655;48.744;9.162;2022-09-01T04:55:43;30.20;;;23.90;;
11197;SDS011;5655;48.744;9.162;2022-09-01T04:58:11;30.60;;;23.00;;
11197;SDS011;5655;48.744;9.162;2022-09-01T05:00:41;32.38;;;23.40;;
11197;SDS011;5655;48.744;9.162;2022-09-01T05:03:09;28.83;;;22.83;;
11197;SDS011;5655;48.744;9.162;2022-09-01T05:05:39;28.33;;;22.38;;
11197;SDS011;5655;48.744;9.162;2022-09-01T05:08:11;29.77;;;23.42;;
11197;SDS011;5655;48.744;9.162;2022-09-01T05:10:43;28.98;;;22.58;;
11197;SDS011;5655;48.744;9.162;2022-09-01T05:13:10;29.13;;;23.35;;
11197;SDS011;5655;48.744;9.162;2022-09-01T05:15:39;27.52;;;22.02;;
11197;SDS011;5655;48.744;9.162;2022-09-01T05:18:19;28.52;;;22.55;;
11197;SDS011;5655;48.744;9.162;2022-09-01T05:20:49;28.38;;;22.20;;
11197;SDS011;5655;48.744;9.162;2022-09-01T05:23:16;25.42;;;20.52;;
11197;SDS011;5655;48.744;9.162;2022-09-01T05:25:44;23.52;;;19.48;;
11197;SDS011;5655;48.744;9.162;2022-09-01T05:28:13;25.42;;;20.25;;
11197;SDS011;5655;48.744;9.162;2022-09-01T05:30:43;23.77;;;19.20;;
11197;SDS011;5655;48.744;9.162;2022-09-01T05:33:11;21.20;;;18.23;;
11197;SDS011;5655;48.744;9.162;2022-09-01T05:35:41;21.52;;;18.42;;
11197;SDS011;5655;48.744;9.162;2022-09-01T05:38:16;18.55;;;16.20;;
11197;SDS011;5655;48.744;9.162;2022-09-01T05:40:42;22.33;;;17.60;;
11197;SDS011;5655;48.744;9.162;2022-09-01T05:43:09;20.95;;;17.02;;
11197;SDS011;5655;48.744;9.162;2022-09-01T05:45:40;20.50;;;17.23;;
11197;SDS011;5655;48.744;9.162;2022-09-01T05:48:09;24.60;;;20.25;;
11197;SDS011;5655;48.744;9.162;2022-09-01T05:50:38;27.20;;;21.33;;
11197;SDS011;5655;48.744;9.162;2022-09-01T05:53:06;25.35;;;20.73;;
11197;SDS011;5655;48.744;9.162;2022-09-01T05:55:36;28.27;;;23.73;;
11197;SDS011;5655;48.744;9.162;2022-09-01T05:58:01;30.23;;;24.02;;
11197;SDS011;5655;48.744;9.162;2022-09-01T06:00:27;29.88;;;23.20;;
11197;SDS011;5655;48.744;9.162;2022-09-01T06:02:58;30.60;;;22.67;;
11197;SDS011;5655;48.744;9.162;2022-09-01T06:05:26;29.17;;;22.83;;
11197;SDS011;5655;48.744;9.162;2022-09-01T06:07:51;30.13;;;23.65;;
11197;SDS011;5655;48.744;9.162;2022-09-01T06:10:19;33.63;;;25.27;;
11197;SDS011;5655;48.744;9.162;2022-09-01T06:12:44;28.67;;;24.40;;
11197;SDS011;5655;48.744;9.162;2022-09-01T06:15:11;29.63;;;24.60;;
11197;SDS011;5655;48.744;9.162;2022-09-01T06:17:39;31.73;;;24.95;;
11197;SDS011;5655;48.744;9.162;2022-09-01T06:20:05;34.75;;;24.55;;
11197;SDS011;5655;48.744;9.162;2022-09-01T06:22:34;30.48;;;24.08;;
11197;SDS011;5655;48.744;9.162;2022-09-01T06:25:00;30.35;;;24.05;;
11197;SDS011;5655;48.744;9.162;2022-09-01T06:27:25;35.38;;;24.60;;
11197;SDS011;5655;48.744;9.162;2022-09-01T06:29:51;28.80;;;23.05;;
11197;SDS011;5655;48.744;9.162;2022-09-01T06:32:18;30.05;;;23.90;;
11197;SDS011;5655;48.744;9.162;2022-09-01T06:34:44;28.90;;;23.17;;
11197;SDS011;5655;48.744;9.162;2022-09-01T06:37:15;31.83;;;25.17;;
11197;SDS011;5655;48.744;9.162;2022-09-01T06:39:46;26.60;;;20.85;;
11197;SDS011;5655;48.744;9.162;2022-09-01T06:42:11;23.73;;;19.13;;
11197;SDS011;5655;48.744;9.162;2022-09-01T06:44:37;21.02;;;17.52;;
11197;SDS011;5655;48.744;9.162;2022-09-01T06:47:03;20.55;;;17.15;;
11197;SDS011;5655;48.744;9.162;2022-09-01T06:49:29;22.77;;;16.90;;
11197;SDS011;5655;48.744;9.162;2022-09-01T06:52:02;19.27;;;15.70;;
11197;SDS011;5655;48.744;9.162;2022-09-01T06:54:28;17.80;;;14.75;;
11197;SDS011;5655;48.744;9.162;2022-09-01T06:56:58;18.02;;;15.82;;
11197;SDS011;5655;48.744;9.162;2022-09-01T06:59:26;18.92;;;15.18;;
11197;SDS011;5655;48.744;9.162;2022-09-01T07:01:54;18.02;;;14.98;;
11197;SDS011;5655;48.744;9.162;2022-09-01T07:04:20;16.95;;;15.18;;
11197;SDS011;5655;48.744;9.162;2022-09-01T07:06:47;18.77;;;15.60;;
11197;SDS011;5655;48.744;9.162;2022-09-01T07:09:16;18.15;;;15.82;;
11197;SDS011;5655;48.744;9.162;2022-09-01T07:11:43;20.33;;;18.02;;
11197;SDS011;5655;48.744;9.162;2022-09-01T07:14:09;21.80;;;19.05;;
11197;SDS011;5655;48.744;9.162;2022-09-01T07:16:36;22.55;;;18.38;;
11197;SDS011;5655;48.744;9.162;2022-09-01T07:19:05;18.73;;;15.32;;
11197;SDS011;5655;48.744;9.162;2022-09-01T07:21:35;16.02;;;14.40;;
11197;SDS011;5655;48.744;9.162;2022-09-01T07:24:01;11.57;;;10.38;;
11197;SDS011;5655;48.744;9.162;2022-09-01T07:26:28;12.07;;;9.35;;
11197;SDS011;5655;48.744;9.162;2022-09-01T07:28:54;12.15;;;10.55;;
11197;SDS011;5655;48.744;9.162;2022-09-01T07:31:25;11.60;;;9.40;;
11197;SDS011;5655;48.744;9.162;2022-09-01T07:33:53;10.80;;;9.05;;
11197;SDS011;5655;48.744;9.162;2022-09-01T07:36:20;8.77;;;7.88;;
11197;SDS011;5655;48.744;9.162;2022-09-01T07:38:45;10.27;;;9.20;;
11197;SDS011;5655;48.744;9.162;2022-09-01T07:41:18;19.80;;;15.43;;
11197;SDS011;5655;48.744;9.162;2022-09-01T07:43:45;20.90;;;15.65;;
11197;SDS011;5655;48.744;9.162;2022-09-01T07:46:13;18.52;;;13.40;;
11197;SDS011;5655;48.744;9.162;2022-09-01T07:48:39;12.20;;;10.90;;
11197;SDS011;5655;48.744;9.162;2022-09-01T07:51:04;12.38;;;10.75;;
11197;SDS011;5655;48.744;9.162;2022-09-01T07:53:31;15.35;;;12.73;;
11197;SDS011;5655;48.744;9.162;2022-09-01T07:56:05;13.10;;;10.90;;
11197;SDS011;5655;48.744;9.162;2022-09-01T07:58:33;17.38;;;13.82;;
11197;SDS011;5655;48.744;9.162;2022-09-01T08:00:59;17.90;;;15.73;;
11197;SDS011;5655;48.744;9.162;2022-09-01T08:03:28;18.92;;;14.73;;
11197;SDS011;5655;48.744;9.162;2022-09-01T08:05:54;17.42;;;14.60;;
11197;SDS011;5655;48.744;9.162;2022-09-01T08:08:24;20.92;;;15.23;;
11197;SDS011;5655;48.744;9.162;2022-09-01T08:10:50;17.30;;;14.93;;
11197;SDS011;5655;48.744;9.162;2022-09-01T08:13:16;21.60;;;16.13;;
11197;SDS011;5655;48.744;9.162;2022-09-01T08:15:41;17.02;;;13.70;;
11197;SDS011;5655;48.744;9.162;2022-09-01T08:18:07;17.10;;;13.35;;
11197;SDS011;5655;48.744;9.162;2022-09-01T08:20:34;14.82;;;11.88;;
11197;SDS011;5655;48.744;9.162;2022-09-01T08:23:04;15.60;;;11.43;;
11197;SDS011;5655;48.744;9.162;2022-09-01T08:25:30;14.35;;;11.48;;
11197;SDS011;5655;48.744;9.162;2022-09-01T08:27:57;12.68;;;11.02;;
11197;SDS011;5655;48.744;9.162;2022-09-01T08:30:23;17.40;;;12.52;;
11197;SDS011;5655;48.744;9.162;2022-09-01T08:32:48;14.75;;;11.95;;
11197;SDS011;5655;48.744;9.162;2022-09-01T08:35:14;14.43;;;11.50;;
11197;SDS011;5655;48.744;9.162;2022-09-01T08:37:40;14.40;;;11.35;;
11197;SDS011;5655;48.744;9.162;2022-09-01T08:40:06;13.25;;;10.98;;
11197;SDS011;5655;48.744;9.162;2022-09-01T08:48:19;12.27;;;10.18;;
11197;SDS011;5655;48.744;9.162;2022-09-01T08:50:48;12.15;;;10.68;;
11197;SDS011;5655;48.744;9.162;2022-09-01T08:53:42;13.30;;;11.02;;
11197;SDS011;5655;48.744;9.162;2022-09-01T08:56:11;12.55;;;10.05;;
11197;SDS011;5655;48.744;9.162;2022-09-01T08:58:37;10.95;;;9.68;;
11197;SDS011;5655;48.744;9.162;2022-09-01T09:01:06;12.05;;;9.93;;
11197;SDS011;5655;48.744;9.162;2022-09-01T09:03:41;11.50;;;9.38;;
11197;SDS011;5655;48.744;9.162;2022-09-01T09:17:27;10.73;;;9.05;;
11197;SDS011;5655;48.744;9.162;2022-09-01T09:19:58;9.27;;;7.78;;
11197;SDS011;5655;48.744;9.162;2022-09-01T09:22:25;9.57;;;7.68;;
11197;SDS011;5655;48.744;9.162;2022-09-01T09:25:12;9.45;;;6.80;;
11197;SDS011;5655;48.744;9.162;2022-09-01T09:37:56;8.88;;;7.97;;
11197;SDS011;5655;48.744;9.162;2022-09-01T09:43:32;8.00;;;7.20;;
11197;SDS011;5655;48.744;9.162;2022-09-01T09:49:10;8.43;;;7.63;;
11197;SDS011;5655;48.744;9.162;2022-09-01T09:51:44;7.28;;;6.40;;
11197;SDS011;5655;48.744;9.162;2022-09-01T09:54:27;7.20;;;6.47;;
11197;SDS011;5655;48.744;9.162;2022-09-01T09:57:28;8.20;;;6.93;;
11197;SDS011;5655;48.744;9.162;2022-09-01T09:59:47;7.60;;;6.88;;
11197;SDS011;5655;48.744;9.162;2022-09-01T10:08:04;7.90;;;6.07;;
11197;SDS011;5655;48.744;9.162;2022-09-01T10:13:10;5.68;;;5.07;;
11197;SDS011;5655;48.744;9.162;2022-09-01T10:15:40;5.90;;;5.25;;
11197;SDS011;5655;48.744;9.162;2022-09-01T10:18:13;5.05;;;4.45;;
11197;SDS011;5655;48.744;9.162;2022-09-01T10:23:47;5.07;;;4.40;;
11197;SDS011;5655;48.744;9.162;2022-09-01T10:26:23;5.93;;;4.40;;
11197;SDS011;5655;48.744;9.162;2022-09-01T10:28:58;4.75;;;4.22;;
11197;SDS011;5655;48.744;9.162;2022-09-01T10:31:30;4.65;;;4.25;;
11197;SDS011;5655;48.744;9.162;2022-09-01T10:33:55;4.38;;;3.92;;
11197;SDS011;5655;48.744;9.162;2022-09-01T10:36:22;5.03;;;3.90;;
11197;SDS011;5655;48.744;9.162;2022-09-01T10:38:48;4.75;;;4.25;;
11197;SDS011;5655;48.744;9.162;2022-09-01T10:44:10;4.32;;;3.88;;
11197;SDS011;5655;48.744;9.162;2022-09-01T10:46:46;6.15;;;4.65;;
11197;SDS011;5655;48.744;9.162;2022-09-01T10:49:19;4.43;;;4.00;;
11197;SDS011;5655;48.744;9.162;2022-09-01T10:51:51;4.65;;;4.25;;
11197;SDS011;5655;48.744;9.162;2022-09-01T10:57:02;6.35;;;4.10;;
11197;SDS011;5655;48.744;9.162;2022-09-01T10:59:33;4.65;;;4.10;;
11197;SDS011;5655;48.744;9.162;2022-09-01T11:09:43;4.85;;;3.95;;
11197;SDS011;5655;48.744;9.162;2022-09-01T11:12:19;4.05;;;3.75;;
11197;SDS011;5655;48.744;9.162;2022-09-01T11:17:55;4.10;;;2.83;;
11197;SDS011;5655;48.744;9.162;2022-09-01T11:30:48;3.83;;;3.38;;
11197;SDS011;5655;48.744;9.162;2022-09-01T11:33:42;3.35;;;3.05;;
11197;SDS011;5655;48.744;9.162;2022-09-01T11:36:31;3.75;;;3.45;;
11197;SDS011;5655;48.744;9.162;2022-09-01T11:39:17;5.13;;;3.78;;
11197;SDS011;5655;48.744;9.162;2022-09-01T11:50:02;3.22;;;2.92;;
11197;SDS011;5655;48.744;9.162;2022-09-01T11:52:35;3.88;;;3.22;;
11197;SDS011;5655;48.744;9.162;2022-09-01T11:55:03;3.40;;;3.08;;
11197;SDS011;5655;48.744;9.162;2022-09-01T11:57:31;3.78;;;3.47;;
11197;SDS011;5655;48.744;9.162;2022-09-01T12:00:07;3.42;;;3.03;;
11197;SDS011;5655;48.744;9.162;2022-09-01T12:02:42;3.50;;;3.20;;
11197;SDS011;5655;48.744;9.162;2022-09-01T12:07:52;3.35;;;3.05;;
11197;SDS011;5655;48.744;9.162;2022-09-01T12:10:23;3.30;;;3.00;;
11197;SDS011;5655;48.744;9.162;2022-09-01T12:13:01;3.10;;;2.67;;
11197;SDS011;5655;48.744;9.162;2022-09-01T12:15:32;3.30;;;3.00;;
11197;SDS011;5655;48.744;9.162;2022-09-01T12:18:21;3.47;;;3.17;;
11197;SDS011;5655;48.744;9.162;2022-09-01T12:20:52;4.28;;;2.97;;
11197;SDS011;5655;48.744;9.162;2022-09-01T12:25:52;3.78;;;2.80;;
11197;SDS011;5655;48.744;9.162;2022-09-01T12:28:20;4.55;;;3.00;;
11197;SDS011;5655;48.744;9.162;2022-09-01T12:30:47;3.25;;;2.95;;
11197;SDS011;5655;48.744;9.162;2022-09-01T12:33:14;4.32;;;2.60;;
11197;SDS011;5655;48.744;9.162;2022-09-01T12:35:42;4.00;;;2.55;;
11197;SDS011;5655;48.744;9.162;2022-09-01T12:40:43;3.00;;;2.33;;
11197;SDS011;5655;48.744;9.162;2022-09-01T12:43:10;2.97;;;2.63;;
11197;SDS011;5655;48.744;9.162;2022-09-01T12:45:50;3.50;;;3.20;;
11197;SDS011;5655;48.744;9.162;2022-09-01T12:48:27;4.05;;;3.50;;
11197;SDS011;5655;48.744;9.162;2022-09-01T12:50:54;3.50;;;3.20;;
11197;SDS011;5655;48.744;9.162;2022-09-01T12:53:23;3.38;;;3.08;;
11197;SDS011;5655;48.744;9.162;2022-09-01T12:55:56;3.30;;;3.00;;
11197;SDS011;5655;48.744;9.162;2022-09-01T12:58:28;4.20;;;3.38;;
11197;SDS011;5655;48.744;9.162;2022-09-01T13:03:24;3.50;;;3.17;;
11197;SDS011;5655;48.744;9.162;2022-09-01T13:05:58;3.58;;;3.22;;
11197;SDS011;5655;48.744;9.162;2022-09-01T13:08:27;4.25;;;2.95;;
11197;SDS011;5655;48.744;9.162;2022-09-01T13:11:04;3.28;;;2.97;;
11197;SDS011;5655;48.744;9.162;2022-09-01T13:13:33;3.40;;;3.10;;
11197;SDS011;5655;48.744;9.162;2022-09-01T13:15:59;3.72;;;3.00;;
11197;SDS011;5655;48.744;9.162;2022-09-01T13:18:28;4.18;;;3.78;;
11197;SDS011;5655;48.744;9.162;2022-09-01T13:20:54;5.38;;;3.78;;
11197;SDS011;5655;48.744;9.162;2022-09-01T13:23:21;4.18;;;3.30;;
11197;SDS011;5655;48.744;9.162;2022-09-01T13:25:47;5.05;;;3.05;;
11197;SDS011;5655;48.744;9.162;2022-09-01T13:28:13;3.40;;;3.10;;
11197;SDS011;5655;48.744;9.162;2022-09-01T13:30:39;3.13;;;2.83;;
11197;SDS011;5655;48.744;9.162;2022-09-01T13:33:07;2.75;;;2.53;;
11197;SDS011;5655;48.744;9.162;2022-09-01T13:35:33;3.20;;;2.47;;
11197;SDS011;5655;48.744;9.162;2022-09-01T13:37:58;2.60;;;2.38;;
11197;SDS011;5655;48.744;9.162;2022-09-01T13:40:23;3.22;;;2.60;;
11197;SDS011;5655;48.744;9.162;2022-09-01T13:42:50;6.95;;;2.95;;
11197;SDS011;5655;48.744;9.162;2022-09-01T13:45:18;4.50;;;2.92;;
11197;SDS011;5655;48.744;9.162;2022-09-01T13:47:45;2.88;;;2.67;;
11197;SDS011;5655;48.744;9.162;2022-09-01T13:50:13;3.00;;;2.70;;
11197;SDS011;5655;48.744;9.162;2022-09-01T13:52:43;3.22;;;2.92;;
11197;SDS011;5655;48.744;9.162;2022-09-01T13:55:12;2.90;;;2.50;;
11197;SDS011;5655;48.744;9.162;2022-09-01T13:57:39;3.42;;;3.03;;
11197;SDS011;5655;48.744;9.162;2022-09-01T14:00:06;4.03;;;3.30;;
11197;SDS011;5655;48.744;9.162;2022-09-01T14:02:34;4.05;;;3.65;;
11197;SDS011;5655;48.744;9.162;2022-09-01T14:05:00;5.32;;;3.47;;
11197;SDS011;5655;48.744;9.162;2022-09-01T14:07:26;3.72;;;3.20;;
11197;SDS011;5655;48.744;9.162;2022-09-01T14:09:52;3.92;;;2.92;;
11197;SDS011;5655;48.744;9.162;2022-09-01T14:12:18;5.05;;;3.17;;
11197;SDS011;5655;48.744;9.162;2022-09-01T14:14:44;3.78;;;3.38;;
11197;SDS011;5655;48.744;9.162;2022-09-01T14:17:09;4.07;;;3.33;;
11197;SDS011;5655;48.744;9.162;2022-09-01T14:19:35;4.43;;;2.97;;
11197;SDS011;5655;48.744;9.162;2022-09-01T14:22:01;3.35;;;3.05;;
11197;SDS011;5655;48.744;9.162;2022-09-01T14:24:30;4.10;;;3.58;;
11197;SDS011;5655;48.744;9.162;2022-09-01T14:26:58;3.90;;;3.50;;
11197;SDS011;5655;48.744;9.162;2022-09-01T14:29:23;3.72;;;3.42;;
11197;SDS011;5655;48.744;9.162;2022-09-01T14:31:49;6.25;;;3.97;;
11197;SDS011;5655;48.744;9.162;2022-09-01T14:34:15;3.75;;;3.25;;
11197;SDS011;5655;48.744;9.162;2022-09-01T14:36:41;3.30;;;3.10;;
11197;SDS011;5655;48.744;9.162;2022-09-01T14:39:07;3.92;;;3.22;;
11197;SDS011;5655;48.744;9.162;2022-09-01T14:41:33;3.20;;;2.90;;
11197;SDS011;5655;48.744;9.162;2022-09-01T14:43:58;2.60;;;2.40;;
11197;SDS011;5655;48.744;9.162;2022-09-01T14:46:26;2.70;;;2.50;;
11197;SDS011;5655;48.744;9.162;2022-09-01T14:48:54;2.45;;;2.25;;
11197;SDS011;5655;48.744;9.162;2022-09-01T14:51:22;2.53;;;2.33;;
11197;SDS011;5655;48.744;9.162;2022-09-01T14:53:50;2.78;;;2.47;;
11197;SDS011;5655;48.744;9.162;2022-09-01T14:56:17;2.95;;;2.40;;
11197;SDS011;5655;48.744;9.162;2022-09-01T14:58:43;2.60;;;2.40;;
11197;SDS011;5655;48.744;9.162;2022-09-01T15:01:11;2.90;;;2.47;;
11197;SDS011;5655;48.744;9.162;2022-09-01T15:03:38;3.42;;;2.42;;
11197;SDS011;5655;48.744;9.162;2022-09-01T15:06:04;2.58;;;2.38;;
11197;SDS011;5655;48.744;9.162;2022-09-01T15:08:29;2.75;;;2.55;;
11197;SDS011;5655;48.744;9.162;2022-09-01T15:10:55;6.35;;;2.63;;
11197;SDS011;5655;48.744;9.162;2022-09-01T15:13:20;2.30;;;2.10;;
11197;SDS011;5655;48.744;9.162;2022-09-01T15:15:45;2.42;;;2.22;;
11197;SDS011;5655;48.744;9.162;2022-09-01T15:18:11;2.72;;;2.40;;
11197;SDS011;5655;48.744;9.162;2022-09-01T15:20:40;3.17;;;2.28;;
11197;SDS011;5655;48.744;9.162;2022-09-01T15:23:10;2.90;;;2.60;;
11197;SDS011;5655;48.744;9.162;2022-09-01T15:25:37;2.55;;;2.35;;
11197;SDS011;5655;48.744;9.162;2022-09-01T15:28:03;4.10;;;2.58;;
11197;SDS011;5655;48.744;9.162;2022-09-01T15:30:30;3.65;;;2.80;;
11197;SDS011;5655;48.744;9.162;2022-09-01T15:32:55;3.15;;;2.85;;
11197;SDS011;5655;48.744;9.162;2022-09-01T15:35:21;3.45;;;2.47;;
11197;SDS011;5655;48.744;9.162;2022-09-01T15:37:47;2.63;;;2.33;;
11197;SDS011;5655;48.744;9.162;2022-09-01T15:40:14;2.50;;;2.30;;
11197;SDS011;5655;48.744;9.162;2022-09-01T15:42:40;2.65;;;2.40;;
11197;SDS011;5655;48.744;9.162;2022-09-01T15:45:07;3.83;;;2.72;;
11197;SDS011;5655;48.744;9.162;2022-09-01T15:47:35;5.97;;;2.35;;
11197;SDS011;5655;48.744;9.162;2022-09-01T15:50:06;3.83;;;2.40;;
11197;SDS011;5655;48.744;9.162;2022-09-01T15:52:33;5.15;;;2.92;;
11197;SDS011;5655;48.744;9.162;2022-09-01T15:54:59;2.83;;;2.55;;
11197;SDS011;5655;48.744;9.162;2022-09-01T15:57:24;2.70;;;2.50;;
11197;SDS011;5655;48.744;9.162;2022-09-01T15:59:51;3.22;;;2.38;;
11197;SDS011;5655;48.744;9.162;2022-09-01T16:02:16;2.50;;;2.30;;
11197;SDS011;5655;48.744;9.162;2022-09-01T16:04:45;3.28;;;2.85;;
11197;SDS011;5655;48.744;9.162;2022-09-01T16:07:11;4.85;;;2.72;;
11197;SDS011;5655;48.744;9.162;2022-09-01T16:09:36;3.33;;;2.65;;
11197;SDS011;5655;48.744;9.162;2022-09-01T16:12:02;2.72;;;2.53;;
11197;SDS011;5655;48.744;9.162;2022-09-01T16:14:27;3.30;;;2.70;;
11197;SDS011;5655;48.744;9.162;2022-09-01T16:17:01;3.40;;;2.97;;
11197;SDS011;5655;48.744;9.162;2022-09-01T16:19:53;2.90;;;2.70;;
11197;SDS011;5655;48.744;9.162;2022-09-01T16:24:52;2.83;;;2.58;;
11197;SDS011;5655;48.744;9.162;2022-09-01T16:27:24;3.80;;;2.92;;
11197;SDS011;5655;48.744;9.162;2022-09-01T16:29:57;3.53;;;3.13;;
11197;SDS011;5655;48.744;9.162;2022-09-01T16:32:28;2.97;;;2.78;;